Airfield :
LOGIN :

Register | Disclaimer

   EN    FR    IT 

 










Legend :    VFR   Marginal VFR   IFR   Intensive IFR   Very Intensive IFR
Visi :
Ceiling :
>= 8 km
>= 3000ft
5 to 8 km
1000 to 3000 ft
1500m to 5 km
500 to 1000 ft
800 to 1500m
200 to 500 ft
< 800m
< 200 ft
Symbols :   Thunderstorms  Fog  Heavy snow  Heavy precipitations  Wind > 20 kt
SIGMETs :     Misc.  Thunderstorms  Icing  Turbulence  Mountain Waves  Volcanic Ashes







- Airport Elevation : 52 ft
- IATA code : IOM
- Download approach charts


EGNS - Isle of Man

CURRENT METAR :
  • 301350Z 19017KT 3000 -RA BR SCT001 OVC002 10/10 Q1011 TEMPO 0800

EXPIRED METARs :
  • 301320Z 20016KT 180V250 0500 -RA FG BKN000 OVC001 10/10 Q1011 TEMPO 1200 BR SCT000 BKN001
  • 301250Z 20016KT 1800 -RA BR BKN001 OVC002 11/10 Q1011 TEMPO 0800
  • 301220Z 20017KT 3500 -RA BR OVC002 11/10 Q1011 TEMPO 2000
  • 301150Z 20019KT 180V240 4000 BR OVC002 11/10 Q1011 TEMPO 2000 RADZ
  • 301120Z 21017KT 180V240 5000 BR OVC002 10/10 Q1011 TEMPO 2000 RADZ

TAF TAF EGNS
Valid from the 30 at 12:00 until the 30 at 21:00 UTC


301100Z 3012/3021 20018KT 3000 BR RADZ SCT001 BKN002
PROB40
TEMPO 3012/3021 7000 NSW SCT002 BKN008
PROB30
TEMPO 3012/3021 0500 FG OVC001
No reported NOTAMs for that airfield.



MET'MAP, your aeronautical weather chart ! - Copyright ORBIFLY December 2007 - Disclaimer

ORBIFLY MET'MAP TEAM :

Programming & Development : Alexandra Zaïnal
Concept & Development : Baudouin d'Aumeries
Co-Development & Prog : Marc-Olivier Méhu
Technical & hardware support : Manuel Goepfert

Contact : metmap@orbifly.com




SOURCES & CREDITS :

   NOAA